createdAt,value
2018-09-07T00:01:14.756Z,98828.79
2018-09-07T00:03:44.799Z,98828.22
2018-09-07T00:06:15.937Z,98832.52
2018-09-07T00:08:45.940Z,98833.94
2018-09-07T00:11:15.776Z,98830.52
2018-09-07T00:13:46.484Z,98828.14
2018-09-07T00:16:16.315Z,98820.02
2018-09-07T00:18:46.231Z,98827.67
2018-09-07T00:21:15.831Z,98824.69
2018-09-07T00:23:45.879Z,98822.02
2018-09-07T00:26:15.780Z,98824.20
2018-09-07T00:28:46.166Z,98831.06
2018-09-07T00:31:16.350Z,98832.92
2018-09-07T00:33:46.311Z,98832.64
2018-09-07T00:36:16.155Z,98833.86
2018-09-07T00:38:46.986Z,98835.39
2018-09-07T00:41:17.132Z,98847.41
2018-09-07T00:43:46.794Z,98845.03
2018-09-07T00:46:17.510Z,98845.03
2018-09-07T00:48:47.237Z,98841.98
2018-09-07T00:51:16.842Z,98841.84
2018-09-07T00:53:46.971Z,98841.43
2018-09-07T00:56:17.897Z,98845.73
2018-09-07T00:58:48.207Z,98833.72
2018-09-07T01:01:19.174Z,98839.64
2018-09-07T01:03:48.989Z,98841.06
2018-09-07T01:06:18.673Z,98842.55
2018-09-07T01:08:48.826Z,98844.73
2018-09-07T01:11:18.561Z,98847.59
2018-09-07T01:13:49.407Z,98848.44
2018-09-07T01:16:19.552Z,98862.95
2018-09-07T01:18:50.031Z,98856.31
2018-09-07T01:21:20.083Z,98869.39
2018-09-07T01:23:50.531Z,98861.04
2018-09-07T01:26:21.537Z,98863.11
2018-09-07T01:28:51.651Z,98863.48
2018-09-07T01:31:22.049Z,98860.05
2018-09-07T01:33:52.532Z,98857.32
2018-09-07T01:36:22.968Z,98861.58
2018-09-07T01:38:54.101Z,98864.71
2018-09-07T01:41:24.557Z,98863.84
2018-09-07T01:43:55.382Z,98867.05
2018-09-07T01:46:27.025Z,98862.05
2018-09-07T01:48:57.791Z,98854.66
2018-09-07T01:51:27.872Z,98851.16
2018-09-07T01:53:58.250Z,98852.91
2018-09-07T01:56:28.028Z,98851.30
2018-09-07T01:58:58.652Z,98842.22
2018-09-07T02:01:29.636Z,98845.47
2018-09-07T02:03:59.512Z,98850.23
2018-09-07T02:06:30.033Z,98855.84
2018-09-07T02:09:00.343Z,98862.26
2018-09-07T02:11:31.655Z,98854.36
2018-09-07T02:14:02.403Z,98848.30
2018-09-07T02:16:32.307Z,98847.92
2018-09-07T02:19:02.242Z,98839.62
2018-09-07T02:21:33.935Z,98846.80
2018-09-07T02:24:03.659Z,98856.47
2018-09-07T02:26:33.613Z,98864.60
2018-09-07T02:29:03.949Z,98858.08
2018-09-07T02:31:34.158Z,98863.70
2018-09-07T02:34:04.708Z,98866.88
2018-09-07T02:36:35.855Z,98869.91
2018-09-07T02:39:07.500Z,98875.97
2018-09-07T02:41:37.440Z,98874.16
2018-09-07T02:44:07.726Z,98875.23
2018-09-07T02:46:37.566Z,98882.36
2018-09-07T02:49:08.011Z,98879.14
2018-09-07T02:51:37.911Z,98883.83
2018-09-07T02:54:07.778Z,98881.77
2018-09-07T02:56:38.117Z,98884.20
2018-09-07T02:59:08.774Z,98881.61
2018-09-07T03:01:38.926Z,98883.20
2018-09-07T03:04:10.032Z,98882.41
2018-09-07T03:06:40.816Z,98882.66
2018-09-07T03:09:11.850Z,98877.34
2018-09-07T03:11:42.602Z,98879.37
2018-09-07T03:14:14.554Z,98839.77
2018-09-07T03:16:44.311Z,98877.67
2018-09-07T03:19:14.291Z,98884.16
2018-09-07T03:21:44.236Z,98879.58
2018-09-07T03:24:14.556Z,98881.97
2018-09-07T03:26:44.974Z,98876.12
2018-09-07T03:29:14.873Z,98872.95
2018-09-07T03:31:44.620Z,98877.94
2018-09-07T03:34:15.334Z,98876.17
2018-09-07T03:36:45.001Z,98873.42
2018-09-07T03:39:15.997Z,98873.20
2018-09-07T03:41:45.868Z,98874.11
2018-09-07T03:44:17.026Z,98876.44
2018-09-07T03:46:46.910Z,98886.48
2018-09-07T03:49:17.481Z,98882.25
2018-09-07T03:51:47.166Z,98885.70
2018-09-07T03:54:17.452Z,98886.53
2018-09-07T03:56:47.217Z,98878.83
2018-09-07T03:59:17.344Z,98893.08
2018-09-07T04:01:46.777Z,98895.45
2018-09-07T04:04:16.866Z,98899.49
2018-09-07T04:06:46.776Z,98899.02
2018-09-07T04:09:17.551Z,98899.33
2018-09-07T04:11:48.886Z,98902.69
2018-09-07T04:14:19.881Z,98906.62
2018-09-07T04:16:49.908Z,98905.83
2018-09-07T04:19:20.452Z,98909.53
2018-09-07T04:21:50.410Z,98905.03
2018-09-07T04:24:20.749Z,98911.80
2018-09-07T04:26:50.216Z,98910.17
2018-09-07T04:29:20.593Z,98916.24
2018-09-07T04:31:50.334Z,98920.92
2018-09-07T04:34:20.240Z,98922.24
2018-09-07T04:36:50.026Z,98927.06
2018-09-07T04:39:20.228Z,98923.56
2018-09-07T04:41:49.774Z,98925.64
2018-09-07T04:44:19.847Z,98922.66
2018-09-07T04:46:49.671Z,98924.47
2018-09-07T04:49:19.584Z,98926.61
2018-09-07T04:51:49.506Z,98924.52
2018-09-07T04:54:19.766Z,98933.82
2018-09-07T04:56:49.275Z,98929.80
2018-09-07T04:59:20.385Z,98931.64
2018-09-07T05:01:49.803Z,98934.94
2018-09-07T05:04:19.337Z,98943.70
2018-09-07T05:06:49.270Z,98944.50
2018-09-07T05:09:19.725Z,98948.45
2018-09-07T05:11:49.574Z,98955.56
2018-09-07T05:14:19.607Z,98957.95
2018-09-07T05:16:49.023Z,98956.83
2018-09-07T05:19:18.461Z,98949.72
2018-09-07T05:21:48.290Z,98965.67
2018-09-07T05:24:18.533Z,98932.70
2018-09-07T05:26:47.984Z,98964.92
2018-09-07T05:29:18.921Z,98964.33
2018-09-07T05:31:48.376Z,98968.58
2018-09-07T05:34:18.187Z,98971.13
2018-09-07T05:36:48.455Z,98973.06
2018-09-07T05:39:18.434Z,98979.48
2018-09-07T05:41:48.279Z,98982.09
2018-09-07T05:44:18.620Z,98981.24
2018-09-07T05:46:48.384Z,98986.33
2018-09-07T05:49:18.193Z,98986.11
2018-09-07T05:51:48.034Z,98988.25
2018-09-07T05:54:17.520Z,98993.25
2018-09-07T05:56:46.941Z,98992.40
2018-09-07T05:59:16.663Z,98993.40
2018-09-07T06:01:46.485Z,98997.97
2018-09-07T06:04:16.381Z,99001.80
2018-09-07T06:06:46.163Z,99008.38
2018-09-07T06:09:16.010Z,99004.39
2018-09-07T06:11:45.747Z,99008.40
2018-09-07T06:14:16.126Z,99008.77
2018-09-07T06:16:45.799Z,99008.32
2018-09-07T06:19:15.770Z,99007.52
2018-09-07T06:21:46.225Z,99006.77
2018-09-07T06:24:15.903Z,99010.56
2018-09-07T06:26:45.662Z,99020.56
2018-09-07T06:29:15.902Z,99022.10
2018-09-07T06:31:46.093Z,99023.09
2018-09-07T06:34:16.646Z,99022.64
2018-09-07T06:36:46.775Z,99026.75
2018-09-07T06:39:16.711Z,99033.14
2018-09-07T06:41:46.430Z,99029.34
2018-09-07T06:44:18.439Z,99015.30
2018-09-07T06:46:49.998Z,99033.33
2018-09-07T06:49:25.653Z,99034.47
2018-09-07T06:51:58.985Z,99035.86
2018-09-07T06:54:30.527Z,99025.20
2018-09-07T06:57:06.978Z,99032.05
2018-09-07T06:59:37.752Z,99035.19
2018-09-07T07:02:16.190Z,99036.14
2018-09-07T07:04:47.658Z,99040.41
2018-09-07T07:07:19.364Z,99047.23
2018-09-07T07:09:49.001Z,99045.48
2018-09-07T07:12:20.412Z,99019.22
2018-09-07T07:14:49.845Z,99045.11
2018-09-07T07:17:20.108Z,99051.16
2018-09-07T07:19:50.098Z,99053.52
2018-09-07T07:22:20.309Z,99055.77
2018-09-07T07:24:50.233Z,99074.58
2018-09-07T07:27:20.771Z,99068.42
2018-09-07T07:29:50.948Z,99070.11
2018-09-07T07:32:29.739Z,99063.66
2018-09-07T07:35:00.035Z,99074.48
2018-09-07T07:37:29.747Z,99071.55
2018-09-07T07:39:59.251Z,99067.89
2018-09-07T07:42:30.666Z,99068.88
2018-09-07T07:45:00.748Z,99073.80
2018-09-07T07:47:32.590Z,99076.38
2018-09-07T07:50:11.321Z,99077.42
2018-09-07T07:52:44.737Z,99084.34
2018-09-07T07:55:18.960Z,99083.89
2018-09-07T07:57:49.583Z,99085.87
2018-09-07T08:00:19.458Z,99083.02
2018-09-07T08:02:49.104Z,99084.13
2018-09-07T08:05:18.589Z,99094.17
2018-09-07T08:07:48.926Z,99091.21
2018-09-07T08:10:19.377Z,99096.98
2018-09-07T08:12:50.047Z,99100.75
2018-09-07T08:15:20.649Z,99106.88
2018-09-07T08:17:54.385Z,99102.47
2018-09-07T08:20:25.731Z,99104.32
2018-09-07T08:22:55.681Z,99101.17
2018-09-07T08:25:25.309Z,99102.08
2018-09-07T08:27:57.376Z,99100.47
2018-09-07T08:30:27.203Z,99094.11
2018-09-07T08:32:58.836Z,99095.70
2018-09-07T08:35:29.069Z,99096.05
2018-09-07T08:37:58.850Z,99095.80
2018-09-07T08:40:32.557Z,99101.05
2018-09-07T08:43:03.328Z,99109.64
2018-09-07T08:45:36.539Z,99106.08
2018-09-07T08:48:10.892Z,99081.02
2018-09-07T08:50:42.775Z,99096.08
2018-09-07T08:53:17.638Z,99111.80
2018-09-07T08:55:47.332Z,99104.66
2018-09-07T08:58:19.412Z,99115.44
2018-09-07T09:03:34.199Z,99114.06
2018-09-07T09:06:05.103Z,99099.48
2018-09-07T09:08:38.688Z,99115.52
2018-09-07T09:11:12.112Z,99119.53
2018-09-07T09:13:42.642Z,99112.45
2018-09-07T09:16:16.536Z,99110.63
2018-09-07T09:18:48.345Z,99117.45
2018-09-07T09:21:19.462Z,99111.19
2018-09-07T09:23:49.987Z,99113.25
2018-09-07T09:26:20.501Z,99116.41
2018-09-07T09:28:50.638Z,99117.91
2018-09-07T09:31:20.551Z,99121.21
2018-09-07T09:33:50.202Z,99123.48
2018-09-07T09:36:21.552Z,99115.50
2018-09-07T09:38:51.651Z,99113.11
2018-09-07T09:41:22.090Z,99119.11
2018-09-07T09:43:51.922Z,99117.16
2018-09-07T09:46:21.552Z,99115.80
2018-09-07T09:48:52.558Z,99117.37
2018-09-07T09:51:22.309Z,99115.38
2018-09-07T09:53:52.763Z,99112.43
2018-09-07T09:56:22.757Z,99115.95
2018-09-07T09:58:53.957Z,99113.80
2018-09-07T10:01:29.721Z,99121.27
2018-09-07T10:04:03.207Z,99121.22
2018-09-07T10:06:33.336Z,99123.49
2018-09-07T10:09:03.022Z,99115.75
2018-09-07T10:11:33.858Z,99117.94
2018-09-07T10:14:06.739Z,99129.39
2018-09-07T10:16:37.137Z,99115.52
2018-09-07T10:19:08.329Z,99108.70
2018-09-07T10:21:38.489Z,99113.67
2018-09-07T10:24:10.165Z,99107.39
2018-09-07T10:26:41.949Z,99102.41
2018-09-07T10:29:13.707Z,99104.95
2018-09-07T10:31:44.130Z,99108.53
2018-09-07T10:34:13.657Z,99110.73
2018-09-07T10:36:45.477Z,99115.27
2018-09-07T10:39:15.987Z,99105.54
2018-09-07T10:41:46.148Z,99110.53
2018-09-07T10:44:16.889Z,99117.98
2018-09-07T10:46:48.741Z,99107.03
2018-09-07T10:49:18.963Z,99104.69
2018-09-07T10:51:49.878Z,99104.74
2018-09-07T10:54:20.955Z,99101.12
2018-09-07T10:56:50.617Z,99098.13
2018-09-07T10:59:22.110Z,99096.84
2018-09-07T11:01:52.348Z,99096.76
2018-09-07T11:04:22.297Z,99103.34
2018-09-07T11:06:53.454Z,99096.84
2018-09-07T11:09:23.608Z,99104.61
2018-09-07T11:11:54.385Z,99107.48
2018-09-07T11:14:24.450Z,99101.27
2018-09-07T11:16:56.904Z,99104.23
2018-09-07T11:19:31.540Z,99100.45
2018-09-07T11:22:05.762Z,99105.16
2018-09-07T11:24:36.038Z,99106.48
2018-09-07T11:27:07.003Z,99102.65
2018-09-07T11:29:43.671Z,99106.48
2018-09-07T11:32:14.777Z,99104.48
2018-09-07T11:34:48.613Z,99105.48
2018-09-07T11:37:21.394Z,99100.30
2018-09-07T11:39:51.126Z,99108.58
2018-09-07T11:42:23.330Z,99106.40
2018-09-07T11:44:54.707Z,99102.23
2018-09-07T11:47:26.333Z,99104.41
2018-09-07T11:49:58.577Z,99104.52
2018-09-07T11:52:32.060Z,99099.63
2018-09-07T11:55:06.613Z,99099.16
2018-09-07T11:57:39.608Z,99090.45
2018-09-07T12:00:09.556Z,99094.20
2018-09-07T12:02:40.503Z,99097.91
2018-09-07T12:05:12.859Z,99087.37
2018-09-07T12:07:43.378Z,99081.02
2018-09-07T12:10:13.927Z,99079.97
2018-09-07T12:12:44.695Z,99087.61
2018-09-07T12:15:14.646Z,99080.17
2018-09-07T12:17:45.481Z,99081.20
2018-09-07T12:20:15.175Z,99084.27
2018-09-07T12:22:45.783Z,99076.01
2018-09-07T12:25:16.633Z,99074.30
2018-09-07T12:27:47.227Z,99074.34
2018-09-07T12:30:17.259Z,99064.61
2018-09-07T12:32:50.095Z,99065.06
2018-09-07T12:35:24.842Z,99061.28
2018-09-07T12:37:55.925Z,99059.56
2018-09-07T12:40:26.821Z,99054.88
2018-09-07T12:42:57.056Z,99050.92
2018-09-07T12:45:28.527Z,99046.79
2018-09-07T12:47:59.449Z,99047.42
2018-09-07T12:50:29.094Z,99040.45
2018-09-07T12:52:58.951Z,99040.70
2018-09-07T12:55:28.782Z,99050.59
2018-09-07T12:57:59.661Z,99048.19
2018-09-07T13:00:29.151Z,99051.98
2018-09-07T13:02:59.264Z,99048.45
2018-09-07T13:05:29.383Z,99047.02
2018-09-07T13:08:01.568Z,99053.55
2018-09-07T13:10:31.426Z,99059.06
2018-09-07T13:13:01.136Z,99058.31
2018-09-07T13:15:31.051Z,99072.88
2018-09-07T13:18:01.764Z,99068.39
2018-09-07T13:20:31.958Z,99100.98
2018-09-07T13:23:01.845Z,99105.27
2018-09-07T13:25:31.445Z,99103.74
2018-09-07T13:28:01.041Z,99106.27
2018-09-07T13:30:30.781Z,99120.38
2018-09-07T13:33:02.434Z,99124.54
2018-09-07T13:35:32.115Z,99133.58
2018-09-07T13:38:03.513Z,99124.17
2018-09-07T13:40:33.993Z,99132.55
2018-09-07T13:43:03.650Z,99126.66
2018-09-07T13:45:33.485Z,99133.32
2018-09-07T13:48:03.857Z,99134.40
2018-09-07T13:50:33.531Z,99134.25
2018-09-07T13:53:03.916Z,99148.44
2018-09-07T13:55:34.218Z,99150.14
2018-09-07T13:58:04.467Z,99158.80
2018-09-07T14:00:34.440Z,99171.73
2018-09-07T14:03:04.029Z,99166.34
2018-09-07T14:05:35.122Z,99166.12
2018-09-07T14:08:05.252Z,99167.52
2018-09-07T14:10:35.290Z,99163.42
2018-09-07T14:13:05.472Z,99160.48
2018-09-07T14:15:35.190Z,99170.98
2018-09-07T14:18:06.433Z,99164.88
2018-09-07T14:20:36.557Z,99155.17
2018-09-07T14:23:06.386Z,99156.02
2018-09-07T14:25:36.355Z,99154.42
2018-09-07T14:28:07.850Z,99150.59
2018-09-07T14:30:40.672Z,99153.17
2018-09-07T14:33:12.988Z,99150.06
2018-09-07T14:35:45.328Z,99154.55
2018-09-07T14:38:15.799Z,99155.07
2018-09-07T14:40:46.837Z,99154.23
2018-09-07T14:43:19.440Z,99153.96
2018-09-07T14:45:49.388Z,99159.58
2018-09-07T14:48:20.040Z,99150.40
2018-09-07T14:50:49.689Z,99158.55
2018-09-07T14:53:22.542Z,99159.88
2018-09-07T14:55:53.779Z,99154.61
2018-09-07T14:58:24.902Z,99167.28
2018-09-07T15:00:54.907Z,99155.47
2018-09-07T15:03:25.000Z,99154.55
2018-09-07T15:05:55.505Z,99152.05
2018-09-07T15:08:26.771Z,99151.92
2018-09-07T15:10:57.655Z,99153.92
2018-09-07T15:13:31.199Z,99165.05
2018-09-07T15:16:02.735Z,99158.34
2018-09-07T15:18:35.058Z,99160.55
2018-09-07T15:21:05.355Z,99160.28
2018-09-07T15:23:36.748Z,99158.19
2018-09-07T15:26:08.898Z,99162.27
2018-09-07T15:28:39.488Z,99158.86
2018-09-07T15:31:11.565Z,99164.58
2018-09-07T15:33:43.061Z,99166.97
2018-09-07T15:36:17.292Z,99159.08
2018-09-07T15:38:50.906Z,99160.09
2018-09-07T15:41:27.906Z,99146.27
2018-09-07T15:44:06.951Z,99158.61
2018-09-07T15:46:39.009Z,99162.49
2018-09-07T15:49:13.410Z,99155.14
2018-09-07T15:51:48.836Z,99161.29
2018-09-07T15:54:21.521Z,99164.73
2018-09-07T15:56:53.327Z,99161.53
2018-09-07T15:59:25.698Z,99160.56
2018-09-07T16:01:58.407Z,99173.53
2018-09-07T16:04:34.165Z,99179.45
2018-09-07T16:07:06.070Z,99176.08
2018-09-07T16:09:39.849Z,99182.38
2018-09-07T16:12:15.275Z,99183.91
2018-09-07T16:14:51.723Z,99188.87
2018-09-07T16:17:23.583Z,99196.89
2018-09-07T16:19:55.139Z,99193.84
2018-09-07T16:22:26.585Z,99195.11
2018-09-07T16:24:59.744Z,99202.78
2018-09-07T16:27:32.796Z,99202.05
2018-09-07T16:30:03.748Z,99206.40
2018-09-07T16:32:36.772Z,99198.47
2018-09-07T16:35:07.845Z,99210.23
2018-09-07T16:37:38.923Z,99213.72
2018-09-07T16:40:11.404Z,99218.00
2018-09-07T16:42:43.251Z,99220.91
2018-09-07T16:45:14.568Z,99204.27
2018-09-07T16:47:44.727Z,99223.80
2018-09-07T16:50:15.596Z,99217.47
2018-09-07T16:52:52.074Z,99212.89
2018-09-07T16:55:22.903Z,99217.73
2018-09-07T16:57:55.188Z,99223.53
2018-09-07T17:00:27.328Z,99225.13
2018-09-07T17:02:58.060Z,99207.95
2018-09-07T17:05:29.494Z,99229.94
2018-09-07T17:08:00.878Z,99233.48
2018-09-07T17:10:35.176Z,99237.66
2018-09-07T17:13:06.717Z,99233.40
2018-09-07T17:15:39.256Z,99235.86
2018-09-07T17:18:10.179Z,99238.61
2018-09-07T17:20:40.374Z,99241.52
2018-09-07T17:23:12.021Z,99242.28
2018-09-07T17:25:42.969Z,99247.34
2018-09-07T17:28:14.053Z,99252.02
2018-09-07T17:30:46.316Z,99249.87
2018-09-07T17:33:16.370Z,99245.20
2018-09-07T17:35:50.992Z,99254.98
2018-09-07T17:38:24.092Z,99254.78
2018-09-07T17:40:54.494Z,99254.45
2018-09-07T17:43:25.816Z,99251.98
2018-09-07T17:46:01.700Z,99253.66
2018-09-07T17:48:32.135Z,99255.66
2018-09-07T17:51:04.011Z,99258.86
2018-09-07T17:53:36.588Z,99253.58
2018-09-07T17:56:07.984Z,99259.44
2018-09-07T17:58:40.560Z,99263.44
2018-09-07T18:01:12.195Z,99267.42
2018-09-07T18:03:44.242Z,99275.96
2018-09-07T18:06:19.372Z,99279.78
2018-09-07T18:08:55.313Z,99285.45
2018-09-07T18:11:26.274Z,99293.77
2018-09-07T18:13:56.599Z,99298.06
2018-09-07T18:16:27.466Z,99301.78
2018-09-07T18:19:02.238Z,99306.05
2018-09-07T18:21:37.996Z,99310.70
2018-09-07T18:24:10.269Z,99316.97
2018-09-07T18:26:48.584Z,99321.00
2018-09-07T18:29:20.939Z,99322.19
2018-09-07T18:31:51.830Z,99332.33
2018-09-07T18:34:24.770Z,99339.81
2018-09-07T18:36:55.860Z,99344.61
2018-09-07T18:39:28.344Z,99350.69
2018-09-07T18:42:03.810Z,99345.41
2018-09-07T18:44:34.005Z,99354.95
2018-09-07T18:47:07.794Z,99354.42
2018-09-07T18:49:38.059Z,99361.90
2018-09-07T18:52:08.564Z,99365.12
2018-09-07T18:54:40.185Z,99370.38
2018-09-07T18:57:19.859Z,99370.91
2018-09-07T18:59:52.091Z,99372.75
2018-09-07T19:02:23.031Z,99380.96
2018-09-07T19:04:54.728Z,99383.09
2018-09-07T19:07:24.734Z,99385.52
2018-09-07T19:09:55.154Z,99392.73
2018-09-07T19:12:26.925Z,99403.41
2018-09-07T19:14:57.216Z,99405.32
2018-09-07T19:17:30.460Z,99420.80
2018-09-07T19:20:03.067Z,99424.84
2018-09-07T19:22:34.369Z,99417.95
2018-09-07T19:25:04.871Z,99425.66
2018-09-07T19:27:34.698Z,99429.41
2018-09-07T19:30:06.273Z,99436.58
2018-09-07T19:32:36.103Z,99438.15
2018-09-07T19:35:18.178Z,99444.53
2018-09-07T19:37:50.085Z,99454.84
2018-09-07T19:40:20.244Z,99465.42
2018-09-07T19:42:50.580Z,99463.31
2018-09-07T19:45:20.444Z,99463.06
2018-09-07T19:47:53.989Z,99464.35
2018-09-07T19:50:25.217Z,99460.62
2018-09-07T19:52:55.786Z,99462.51
2018-09-07T19:55:26.877Z,99469.63
2018-09-07T19:57:56.696Z,99470.14
2018-09-07T20:00:27.026Z,99471.20
2018-09-07T20:02:59.065Z,99473.55
2018-09-07T20:05:28.843Z,99470.13
2018-09-07T20:07:59.417Z,99468.25
2018-09-07T20:10:30.342Z,99475.11
2018-09-07T20:13:00.095Z,99474.28
2018-09-07T20:15:32.072Z,99474.53
2018-09-07T20:18:03.793Z,99476.33
2018-09-07T20:20:33.915Z,99477.92
2018-09-07T20:23:03.579Z,99477.64
2018-09-07T20:25:36.918Z,99483.95
2018-09-07T20:28:08.944Z,99486.91
2018-09-07T20:30:46.180Z,99490.58
2018-09-07T20:33:20.389Z,99495.55
2018-09-07T20:35:51.436Z,99499.52
2018-09-07T20:38:23.429Z,99497.92
2018-09-07T20:40:57.360Z,99494.69
2018-09-07T20:43:28.690Z,99504.24
2018-09-07T20:45:59.198Z,99511.67
2018-09-07T20:48:29.398Z,99512.41
2018-09-07T20:50:59.216Z,99519.28
2018-09-07T20:53:29.230Z,99522.45
2018-09-07T20:55:59.541Z,99522.98
2018-09-07T20:58:29.210Z,99527.97
2018-09-07T21:00:59.934Z,99534.35
2018-09-07T21:03:35.154Z,99534.48
2018-09-07T21:06:11.670Z,99539.98
2018-09-07T21:08:48.220Z,99543.69
2018-09-07T21:11:20.772Z,99534.93
2018-09-07T21:13:52.554Z,99510.94
2018-09-07T21:16:24.155Z,99540.72
2018-09-07T21:19:06.373Z,99536.37
2018-09-07T21:21:39.130Z,99537.95
2018-09-07T21:24:10.613Z,99538.47
2018-09-07T21:26:40.773Z,99536.02
2018-09-07T21:29:14.237Z,99537.30
2018-09-07T21:31:45.964Z,99537.33
2018-09-07T21:34:16.479Z,99549.72
2018-09-07T21:36:47.403Z,99516.89
2018-09-07T21:39:17.172Z,99550.44
2018-09-07T21:41:47.183Z,99551.07
2018-09-07T21:44:16.865Z,99551.24
2018-09-07T21:46:50.202Z,99554.26
2018-09-07T21:49:20.215Z,99556.86
2018-09-07T21:51:50.442Z,99559.37
2018-09-07T21:54:23.111Z,99564.90
2018-09-07T21:56:53.854Z,99570.03
2018-09-07T21:59:23.682Z,99569.39
2018-09-07T22:01:54.401Z,99574.75
2018-09-07T22:04:26.228Z,99576.92
2018-09-07T22:07:00.858Z,99579.06
2018-09-07T22:09:35.939Z,99582.61
2018-09-07T22:12:08.277Z,99589.16
2018-09-07T22:14:38.879Z,99583.78
2018-09-07T22:17:11.859Z,99592.80
2018-09-07T22:19:46.150Z,99594.47
2018-09-07T22:22:16.337Z,99591.88
2018-09-07T22:24:55.135Z,99593.25
2018-09-07T22:27:26.699Z,99601.14
2018-09-07T22:30:03.821Z,99606.44
2018-09-07T22:32:36.104Z,99606.14
2018-09-07T22:35:05.982Z,99605.09
2018-09-07T22:37:35.835Z,99608.20
2018-09-07T22:40:07.432Z,99616.30
2018-09-07T22:42:42.125Z,99616.31
2018-09-07T22:45:12.607Z,99618.67
2018-09-07T22:47:42.169Z,99620.00
2018-09-07T22:50:12.525Z,99616.58
2018-09-07T22:52:42.738Z,99619.44
2018-09-07T22:55:13.173Z,99632.44
2018-09-07T22:57:42.927Z,99623.97
2018-09-07T23:00:12.741Z,99634.98
2018-09-07T23:02:42.644Z,99631.62
2018-09-07T23:05:14.162Z,99636.33
2018-09-07T23:07:43.814Z,99634.14
2018-09-07T23:10:13.320Z,99635.17
2018-09-07T23:12:43.181Z,99636.86
2018-09-07T23:15:13.056Z,99638.10
2018-09-07T23:17:43.023Z,99635.87
2018-09-07T23:20:12.847Z,99636.39
2018-09-07T23:22:42.332Z,99635.46
2018-09-07T23:25:12.561Z,99639.26
2018-09-07T23:27:42.169Z,99644.89
2018-09-07T23:30:12.670Z,99645.72
2018-09-07T23:32:42.671Z,99647.53
2018-09-07T23:35:12.368Z,99642.99
2018-09-07T23:37:42.090Z,99642.31
2018-09-07T23:40:12.113Z,99651.50
2018-09-07T23:42:41.801Z,99651.22
2018-09-07T23:45:12.638Z,99654.89
2018-09-07T23:47:42.484Z,99651.85
2018-09-07T23:50:12.766Z,99652.45
2018-09-07T23:52:43.049Z,99650.62
2018-09-07T23:55:12.772Z,99655.38
2018-09-07T23:57:42.723Z,99660.06
